Time;durP1;ratioP1;P1;durP2;ratioP2;P2;SDS_P1;SDS_P2;PMS_P1;PMS_P2;Temp;Humidity;BMP_temperature;BMP_pressure;BME280_temperature;BME280_humidity;BME280_pressure;Samples;Min_cycle;Max_cycle;Signal;HPM_P1;HPM_P2
2023/04/05 00:01:27;;;;;;;7.90;3.93;;;5.10;83.70;;;;;;5031228;28;20025;-76
2023/04/05 00:03:54;;;;;;;9.80;4.93;;;5.10;83.70;;;;;;5033351;28;20022;-76
2023/04/05 00:06:25;;;;;;;6.97;4.70;;;5.10;83.70;;;;;;5030459;28;20021;-76
2023/04/05 00:08:54;;;;;;;6.73;4.50;;;5.10;83.70;;;;;;5032627;28;20121;-76
2023/04/05 00:11:21;;;;;;;8.20;4.87;;;5.10;83.60;;;;;;5032311;28;20052;-76
2023/04/05 00:13:47;;;;;;;5.27;4.10;;;5.10;83.70;;;;;;5033536;28;20025;-76
2023/04/05 00:16:12;;;;;;;5.97;4.33;;;5.00;83.70;;;;;;5032491;28;20040;-76
2023/04/05 00:18:38;;;;;;;7.63;4.60;;;5.00;83.90;;;;;;5032122;28;20057;-76
2023/04/05 00:21:04;;;;;;;8.83;4.03;;;4.90;83.90;;;;;;5031345;28;20025;-76
2023/04/05 00:23:36;;;;;;;11.87;4.83;;;4.90;84.00;;;;;;5031565;28;20025;-75
2023/04/05 00:26:01;;;;;;;6.80;3.80;;;4.80;84.20;;;;;;5030745;28;20021;-76
2023/04/05 00:28:27;;;;;;;5.70;4.07;;;4.80;84.40;;;;;;5032674;28;20039;-76
2023/04/05 00:30:52;;;;;;;7.30;4.50;;;4.80;84.60;;;;;;5041453;28;20033;-76
2023/04/05 00:33:18;;;;;;;7.67;4.67;;;4.70;84.80;;;;;;5035093;28;20075;-75
2023/04/05 00:35:43;;;;;;;6.27;4.47;;;4.70;85.00;;;;;;5031660;28;20037;-76
2023/04/05 00:38:09;;;;;;;6.77;4.97;;;4.70;85.20;;;;;;5032117;28;20037;-75
2023/04/05 00:40:35;;;;;;;7.03;4.10;;;4.60;85.30;;;;;;5031458;28;20021;-76
2023/04/05 00:43:00;;;;;;;9.00;5.23;;;4.60;85.40;;;;;;5032390;28;20028;-75
2023/04/05 00:45:26;;;;;;;8.00;4.47;;;4.60;85.70;;;;;;5032002;28;20025;-76
2023/04/05 00:47:51;;;;;;;5.97;4.00;;;4.50;85.80;;;;;;5032109;28;20018;-75
2023/04/05 00:50:17;;;;;;;8.07;5.17;;;4.50;86.00;;;;;;5030529;28;20392;-75
2023/04/05 00:52:43;;;;;;;10.50;4.87;;;4.50;86.20;;;;;;5030960;28;20028;-75
2023/04/05 00:55:09;;;;;;;8.97;4.90;;;4.50;86.30;;;;;;5030782;28;20072;-75
2023/04/05 00:57:38;;;;;;;9.03;5.37;;;4.50;86.30;;;;;;5030243;28;20025;-76
2023/04/05 01:00:08;;;;;;;7.50;4.90;;;4.50;86.30;;;;;;5031412;28;20172;-75
2023/04/05 01:02:56;;;;;;;9.27;4.50;;;4.50;86.40;;;;;;5030896;28;20052;-76
2023/04/05 01:05:35;;;;;;;6.90;4.23;;;4.50;86.40;;;;;;5031169;28;20037;-75
2023/04/05 01:08:15;;;;;;;8.17;4.60;;;4.50;86.30;;;;;;5031052;28;20409;-75
2023/04/05 01:10:45;;;;;;;9.03;5.37;;;4.40;86.30;;;;;;5030648;28;20023;-75
2023/04/05 01:13:11;;;;;;;7.83;4.57;;;4.40;86.40;;;;;;5031112;28;20037;-75
2023/04/05 01:15:36;;;;;;;9.10;4.90;;;4.30;86.50;;;;;;5029135;28;20502;-75
2023/04/05 01:18:03;;;;;;;8.53;4.73;;;4.30;86.60;;;;;;5031370;28;20029;-75
2023/04/05 01:20:39;;;;;;;8.83;5.30;;;4.30;86.70;;;;;;5031007;28;20777;-75
2023/04/05 01:23:30;;;;;;;8.17;5.03;;;4.30;86.90;;;;;;5031671;28;20731;-75
2023/04/05 01:26:07;;;;;;;8.23;4.83;;;4.30;87.00;;;;;;5029772;28;20044;-78
2023/04/05 01:28:45;;;;;;;7.97;4.90;;;4.20;87.10;;;;;;5031097;28;20022;-76
2023/04/05 01:31:16;;;;;;;10.20;5.27;;;4.20;87.20;;;;;;5030598;28;20057;-76
2023/04/05 01:34:00;;;;;;;8.57;4.60;;;4.10;87.30;;;;;;5030276;28;20048;-76
2023/04/05 01:36:38;;;;;;;6.97;4.90;;;4.10;87.40;;;;;;5031323;28;20025;-76
2023/04/05 01:39:07;;;;;;;9.60;5.17;;;4.10;87.60;;;;;;5029438;28;20021;-76
2023/04/05 01:41:33;;;;;;;8.13;4.37;;;4.00;87.50;;;;;;5030210;28;20029;-75
2023/04/05 01:43:58;;;;;;;6.57;4.03;;;4.00;87.70;;;;;;5030449;28;20029;-76
2023/04/05 01:46:24;;;;;;;9.20;5.37;;;4.00;87.90;;;;;;5047538;28;20473;-76
2023/04/05 01:48:49;;;;;;;8.00;5.17;;;4.00;88.10;;;;;;5049606;28;20074;-76
2023/04/05 01:51:15;;;;;;;8.27;5.10;;;4.00;89.00;;;;;;5041417;28;20485;-76
2023/04/05 01:53:40;;;;;;;7.07;5.50;;;3.90;88.60;;;;;;5047393;28;20024;-76
2023/04/05 01:56:06;;;;;;;12.80;5.37;;;3.90;88.90;;;;;;5047652;28;20021;-76
2023/04/05 01:58:32;;;;;;;8.57;4.40;;;3.80;89.20;;;;;;5049532;28;20033;-76
2023/04/05 02:00:57;;;;;;;14.27;6.30;;;3.80;89.40;;;;;;5044405;28;20100;-76
2023/04/05 02:03:23;;;;;;;8.17;5.23;;;3.80;89.80;;;;;;5049129;28;20048;-77
2023/04/05 02:05:50;;;;;;;13.90;5.50;;;3.70;90.00;;;;;;5046774;28;20028;-77
2023/04/05 02:08:15;;;;;;;8.97;5.20;;;3.70;90.20;;;;;;5047581;28;20116;-77
2023/04/05 02:10:41;;;;;;;7.87;5.63;;;3.60;90.30;;;;;;5046725;28;20106;-77
2023/04/05 02:13:07;;;;;;;12.43;5.97;;;3.60;90.40;;;;;;5041742;28;20486;-77
2023/04/05 02:15:32;;;;;;;8.80;4.50;;;3.60;90.60;;;;;;5047372;28;20043;-76
2023/04/05 02:18:00;;;;;;;8.47;5.77;;;3.50;90.70;;;;;;5047506;28;20033;-76
2023/04/05 02:20:27;;;;;;;8.60;5.10;;;3.50;90.90;;;;;;5044238;28;20071;-76
2023/04/05 02:22:53;;;;;;;10.97;4.90;;;3.50;91.00;;;;;;5033400;28;20108;-76
2023/04/05 02:25:19;;;;;;;7.87;5.00;;;3.40;91.10;;;;;;5046478;28;20032;-78
2023/04/05 02:27:45;;;;;;;8.33;5.17;;;3.40;91.30;;;;;;5048956;28;20478;-77
2023/04/05 02:30:12;;;;;;;11.17;5.37;;;3.40;91.40;;;;;;5043608;28;20108;-78
2023/04/05 02:32:41;;;;;;;8.73;5.13;;;3.30;91.60;;;;;;5037815;28;20033;-78
2023/04/05 02:35:08;;;;;;;8.77;5.10;;;3.30;91.70;;;;;;5047564;28;20025;-77
2023/04/05 02:37:34;;;;;;;8.17;5.33;;;3.20;91.90;;;;;;5036469;28;20038;-78
2023/04/05 02:40:00;;;;;;;9.80;5.70;;;3.20;92.10;;;;;;5046044;28;20028;-78
2023/04/05 02:42:25;;;;;;;12.87;5.73;;;3.20;92.20;;;;;;5049445;28;20421;-78
2023/04/05 02:44:52;;;;;;;7.87;5.23;;;3.20;92.30;;;;;;5048491;28;20021;-76
2023/04/05 02:47:20;;;;;;;11.43;5.63;;;3.20;92.40;;;;;;5041334;28;20030;-75
2023/04/05 02:49:49;;;;;;;8.97;5.27;;;3.10;92.50;;;;;;5046994;28;20104;-75
2023/04/05 02:52:15;;;;;;;8.43;5.33;;;3.10;92.90;;;;;;5046808;28;20502;-76
2023/04/05 02:54:41;;;;;;;7.20;5.43;;;3.10;92.70;;;;;;5047215;28;20078;-76
2023/04/05 02:57:10;;;;;;;10.73;5.60;;;3.00;92.80;;;;;;5042168;28;20047;-76
2023/04/05 02:59:37;;;;;;;10.23;5.97;;;3.00;93.00;;;;;;5046978;28;20044;-75
2023/04/05 03:02:03;;;;;;;9.80;6.80;;;3.00;93.20;;;;;;5047806;28;20049;-75
2023/04/05 03:04:28;;;;;;;10.57;5.70;;;3.10;93.40;;;;;;5047673;28;20021;-76
2023/04/05 03:06:56;;;;;;;9.30;5.70;;;3.10;93.50;;;;;;5036788;28;20036;-76
2023/04/05 03:09:22;;;;;;;9.77;5.97;;;3.20;93.50;;;;;;5052073;28;20025;-76
2023/04/05 03:11:47;;;;;;;9.63;5.90;;;3.30;93.50;;;;;;5051400;28;20053;-76
2023/04/05 03:14:13;;;;;;;7.23;5.60;;;3.30;93.50;;;;;;5052781;28;20717;-76
2023/04/05 03:16:38;;;;;;;8.70;6.07;;;3.30;93.50;;;;;;5041872;28;20112;-75
2023/04/05 03:19:05;;;;;;;8.07;5.13;;;3.30;93.40;;;;;;5020462;28;20194;-76
2023/04/05 03:21:31;;;;;;;9.70;5.50;;;3.30;93.40;;;;;;5032415;28;20386;-75
2023/04/05 03:23:57;;;;;;;13.47;5.57;;;3.30;93.40;;;;;;5019957;28;20021;-76
2023/04/05 03:26:23;;;;;;;9.83;6.00;;;3.30;93.30;;;;;;5032691;28;20457;-76
2023/04/05 03:28:48;;;;;;;10.93;5.87;;;3.30;93.30;;;;;;5032231;28;20025;-76
2023/04/05 03:31:14;;;;;;;9.20;5.90;;;3.30;93.30;;;;;;5038183;28;20026;-75
2023/04/05 03:33:40;;;;;;;8.17;5.43;;;3.30;93.30;;;;;;5037088;28;20021;-76
2023/04/05 03:36:07;;;;;;;10.97;6.23;;;3.30;93.30;;;;;;5052127;28;20033;-77
2023/04/05 03:38:32;;;;;;;7.87;4.73;;;3.20;93.30;;;;;;5051847;28;20017;-77
2023/04/05 03:40:58;;;;;;;10.33;6.17;;;3.20;93.40;;;;;;5052249;28;20389;-77
2023/04/05 03:43:23;;;;;;;10.90;6.50;;;3.20;93.40;;;;;;5049502;28;20067;-76
2023/04/05 03:45:49;;;;;;;11.50;6.97;;;3.10;93.50;;;;;;5050420;28;20025;-77
2023/04/05 03:48:18;;;;;;;9.30;6.73;;;3.10;93.70;;;;;;5084214;28;20027;-77
2023/04/05 03:50:45;;;;;;;11.00;6.60;;;3.10;93.90;;;;;;5039844;28;20103;-77
2023/04/05 03:53:10;;;;;;;10.80;6.20;;;3.10;93.90;;;;;;5052010;28;20032;-76
2023/04/05 03:55:36;;;;;;;12.13;6.80;;;3.10;93.90;;;;;;5049829;28;20126;-77
2023/04/05 03:58:01;;;;;;;10.00;6.13;;;3.10;94.00;;;;;;5050316;28;20449;-77
2023/04/05 04:00:28;;;;;;;10.90;6.23;;;3.10;93.90;;;;;;5041611;28;20091;-77
2023/04/05 04:02:54;;;;;;;10.77;6.27;;;3.10;94.00;;;;;;5050766;28;20068;-77
2023/04/05 04:05:20;;;;;;;11.17;7.23;;;3.00;94.20;;;;;;5051051;28;20056;-77
2023/04/05 04:07:46;;;;;;;8.90;6.00;;;3.00;94.50;;;;;;5051338;28;20078;-77
2023/04/05 04:10:16;;;;;;;10.13;6.80;;;3.00;94.60;;;;;;5043916;28;20029;-77
2023/04/05 04:12:42;;;;;;;10.90;6.57;;;3.00;94.60;;;;;;5050796;28;20493;-77
2023/04/05 04:15:08;;;;;;;12.40;6.73;;;3.00;94.70;;;;;;5050467;28;20355;-77
2023/04/05 04:17:36;;;;;;;9.57;6.00;;;3.00;94.70;;;;;;5047760;28;20017;-77
2023/04/05 04:20:20;;;;;;;11.53;7.13;;;3.00;94.90;;;;;;5046683;28;20029;-76
2023/04/05 04:22:47;;;;;;;;;;;3.00;95.00;;;;;;5051663;28;20021;-77
2023/04/05 04:25:15;;;;;;;11.67;6.33;;;2.90;94.90;;;;;;5034308;28;20302;-77
2023/04/05 04:27:42;;;;;;;13.13;7.50;;;2.90;94.90;;;;;;5029994;28;20032;-77
2023/04/05 04:30:10;;;;;;;9.17;7.33;;;2.80;95.10;;;;;;5047363;28;20028;-77
2023/04/05 04:32:57;;;;;;;11.40;6.27;;;2.80;95.30;;;;;;5038418;28;20033;-77
2023/04/05 04:35:27;;;;;;;12.67;7.00;;;2.80;95.30;;;;;;5030100;28;20482;-77
2023/04/05 04:37:59;;;;;;;10.33;6.00;;;2.80;95.40;;;;;;5044436;28;20034;-77
2023/04/05 04:40:37;;;;;;;10.03;6.80;;;2.80;95.50;;;;;;5029914;28;20076;-76
2023/04/05 04:43:13;;;;;;;10.10;7.03;;;2.80;95.90;;;;;;5030761;28;20022;-77
2023/04/05 04:45:39;;;;;;;10.23;6.80;;;2.80;96.00;;;;;;5029575;28;20538;-77
2023/04/05 04:48:05;;;;;;;10.50;6.53;;;2.80;96.10;;;;;;5030818;28;20067;-77
2023/04/05 04:50:31;;;;;;;10.77;7.33;;;2.80;96.20;;;;;;5029647;28;20025;-77
2023/04/05 04:52:58;;;;;;;8.70;6.77;;;2.80;96.20;;;;;;5030813;28;20026;-77
2023/04/05 04:55:26;;;;;;;11.47;6.20;;;2.80;96.40;;;;;;5043067;28;20036;-77
2023/04/05 04:57:53;;;;;;;9.70;7.17;;;2.80;96.40;;;;;;5049828;28;20025;-77
2023/04/05 05:00:20;;;;;;;12.97;7.37;;;2.80;96.50;;;;;;5046257;28;20052;-77
2023/04/05 05:02:45;;;;;;;14.03;7.70;;;2.80;96.70;;;;;;5044768;28;20422;-77
2023/04/05 05:05:11;;;;;;;11.37;8.43;;;2.70;96.60;;;;;;5041028;28;20026;-77
2023/04/05 05:07:40;;;;;;;11.73;9.23;;;2.70;96.90;;;;;;5048664;28;20024;-77
2023/04/05 05:10:07;;;;;;;10.17;7.43;;;2.70;97.00;;;;;;5049909;28;20029;-77
2023/04/05 05:12:32;;;;;;;14.40;7.90;;;2.80;97.10;;;;;;5038024;28;20021;-76
2023/04/05 05:14:58;;;;;;;12.63;8.00;;;2.70;97.10;;;;;;5038259;28;20033;-77
2023/04/05 05:17:24;;;;;;;12.50;7.37;;;2.70;97.20;;;;;;5040530;28;20033;-76
2023/04/05 05:19:50;;;;;;;12.37;8.27;;;2.70;97.30;;;;;;5036484;28;20032;-77
2023/04/05 05:22:16;;;;;;;13.23;8.50;;;2.70;97.40;;;;;;5026611;28;20030;-77
2023/04/05 05:24:45;;;;;;;15.33;8.83;;;2.70;97.60;;;;;;5033470;28;20045;-77
2023/04/05 05:27:11;;;;;;;14.33;8.73;;;2.70;98.10;;;;;;5039002;28;20055;-77
2023/04/05 05:29:36;;;;;;;13.57;8.13;;;2.70;98.00;;;;;;5039323;28;20029;-76
2023/04/05 05:32:02;;;;;;;13.40;9.30;;;2.70;98.20;;;;;;5042043;28;20025;-77
2023/04/05 05:34:27;;;;;;;15.40;9.07;;;2.80;98.30;;;;;;5030133;28;20061;-77
2023/04/05 05:36:56;;;;;;;10.83;8.53;;;2.80;98.40;;;;;;5035008;28;20033;-77
2023/04/05 05:39:22;;;;;;;12.70;8.10;;;2.80;98.50;;;;;;5045664;28;20650;-77
2023/04/05 05:41:48;;;;;;;11.27;6.83;;;2.80;98.50;;;;;;5047185;28;20021;-77
2023/04/05 05:44:13;;;;;;;14.97;9.10;;;2.80;98.50;;;;;;5047130;28;20025;-77
2023/04/05 05:46:39;;;;;;;11.10;8.50;;;2.80;98.60;;;;;;5035530;28;20043;-77
2023/04/05 05:49:05;;;;;;;13.20;8.40;;;2.80;98.70;;;;;;5048203;28;20025;-74
2023/04/05 05:51:33;;;;;;;14.03;8.43;;;2.90;98.70;;;;;;5049748;28;20107;-74
2023/04/05 05:53:58;;;;;;;18.17;9.43;;;2.90;98.70;;;;;;5039212;28;20025;-74
2023/04/05 05:56:24;;;;;;;12.10;9.27;;;2.90;98.80;;;;;;5041960;28;20132;-74
2023/04/05 05:58:50;;;;;;;17.03;9.00;;;3.00;99.00;;;;;;5043286;28;20227;-72
2023/04/05 06:01:15;;;;;;;15.60;9.60;;;3.00;99.10;;;;;;5030044;28;20057;-74
2023/04/05 06:03:41;;;;;;;19.47;9.70;;;3.10;99.30;;;;;;5029776;28;20390;-74
2023/04/05 06:06:09;;;;;;;11.13;8.60;;;3.20;99.30;;;;;;5030260;28;20029;-75
2023/04/05 06:08:35;;;;;;;18.20;9.37;;;3.20;99.20;;;;;;5029654;28;20319;-74
2023/04/05 06:11:01;;;;;;;9.37;7.53;;;3.30;99.30;;;;;;5037190;28;20438;-74
2023/04/05 06:13:26;;;;;;;15.60;9.73;;;3.40;99.20;;;;;;5046445;28;20116;-74
2023/04/05 06:15:52;;;;;;;17.30;9.80;;;3.40;99.20;;;;;;5039710;28;20785;-74
2023/04/05 06:18:19;;;;;;;14.40;8.80;;;3.50;99.20;;;;;;5039110;28;20024;-74
2023/04/05 06:20:45;;;;;;;13.07;9.13;;;3.50;99.10;;;;;;5041577;28;20028;-74
2023/04/05 06:23:11;;;;;;;15.53;10.53;;;3.60;99.20;;;;;;5045938;28;20074;-75
2023/04/05 06:25:37;;;;;;;14.70;9.47;;;3.70;99.20;;;;;;5037488;28;20033;-74
2023/04/05 06:28:03;;;;;;;21.93;11.17;;;3.80;99.60;;;;;;5034867;28;20757;-75
2023/04/05 06:30:30;;;;;;;17.07;10.67;;;3.90;99.30;;;;;;5040548;28;20127;-74
2023/04/05 06:32:56;;;;;;;15.97;9.27;;;4.00;99.30;;;;;;5036050;28;20024;-74
2023/04/05 06:35:22;;;;;;;17.70;9.43;;;4.00;99.20;;;;;;5029698;28;20025;-74
2023/04/05 06:37:48;;;;;;;13.70;8.87;;;4.10;99.00;;;;;;5029731;28;20107;-75
2023/04/05 06:40:14;;;;;;;15.83;9.50;;;4.10;98.90;;;;;;5029979;28;20053;-74
2023/04/05 06:42:40;;;;;;;10.40;8.47;;;4.20;98.80;;;;;;5031976;28;20083;-75
2023/04/05 06:45:06;;;;;;;13.80;9.37;;;4.20;98.80;;;;;;5032548;28;20022;-75
2023/04/05 06:47:36;;;;;;;15.90;9.80;;;4.30;98.70;;;;;;5046375;28;20032;-75
2023/04/05 06:50:03;;;;;;;14.67;8.97;;;4.40;98.60;;;;;;5036811;28;20030;-75
2023/04/05 06:52:29;;;;;;;13.63;9.23;;;4.40;98.50;;;;;;5034842;28;20029;-75
2023/04/05 06:54:55;;;;;;;11.83;8.87;;;4.50;98.40;;;;;;5037060;28;20549;-76
2023/04/05 06:57:21;;;;;;;13.47;9.10;;;4.60;98.30;;;;;;5032357;28;20401;-75
2023/04/05 06:59:47;;;;;;;11.67;8.10;;;4.60;98.10;;;;;;5032698;28;20470;-75
2023/04/05 07:02:12;;;;;;;14.90;9.10;;;4.70;98.00;;;;;;5035152;28;20049;-76
2023/04/05 07:04:38;;;;;;;12.83;8.47;;;4.80;97.90;;;;;;5033359;28;20014;-75
2023/04/05 07:07:05;;;;;;;11.77;7.73;;;4.80;97.80;;;;;;5034686;28;20025;-75
2023/04/05 07:09:32;;;;;;;12.77;7.90;;;4.90;97.50;;;;;;5036740;28;20509;-75
2023/04/05 07:11:58;;;;;;;12.07;7.93;;;5.00;97.30;;;;;;5035914;28;20363;-75
2023/04/05 07:14:24;;;;;;;11.13;7.43;;;5.10;97.20;;;;;;5039365;28;20025;-75
2023/04/05 07:16:51;;;;;;;11.50;7.60;;;5.10;97.00;;;;;;5045722;28;20079;-75
2023/04/05 07:19:17;;;;;;;12.80;6.40;;;5.20;96.70;;;;;;5047068;28;20106;-75
2023/04/05 07:21:43;;;;;;;7.87;6.83;;;5.20;96.50;;;;;;5033095;28;20470;-75
2023/04/05 07:24:08;;;;;;;8.50;7.43;;;5.30;96.40;;;;;;5045007;28;20443;-75
2023/04/05 07:26:36;;;;;;;13.70;7.23;;;5.40;95.90;;;;;;5047863;28;20021;-75
2023/04/05 07:29:03;;;;;;;10.90;7.47;;;5.40;95.70;;;;;;5034361;28;20032;-75
2023/04/05 07:31:29;;;;;;;13.07;6.27;;;5.50;95.60;;;;;;5032108;28;20119;-75
2023/04/05 07:33:54;;;;;;;12.00;8.90;;;5.60;95.30;;;;;;5033651;28;20554;-75
2023/04/05 07:36:20;;;;;;;10.57;7.53;;;5.60;95.10;;;;;;5034491;28;20025;-75
2023/04/05 07:38:45;;;;;;;8.53;6.70;;;5.70;95.00;;;;;;5033629;28;20010;-75
2023/04/05 07:41:11;;;;;;;11.13;7.37;;;5.80;94.90;;;;;;5034154;28;20018;-74
2023/04/05 07:43:37;;;;;;;10.53;6.77;;;5.80;94.70;;;;;;5031680;28;20025;-75
2023/04/05 07:46:03;;;;;;;11.80;6.97;;;5.90;94.50;;;;;;5033946;28;20029;-75
2023/04/05 07:48:29;;;;;;;9.00;6.87;;;6.10;94.30;;;;;;5046389;28;20083;-74
2023/04/05 07:50:54;;;;;;;9.37;6.60;;;6.10;94.20;;;;;;5032145;28;20017;-75
2023/04/05 07:53:20;;;;;;;12.03;6.63;;;6.20;94.00;;;;;;5042394;28;20036;-74
2023/04/05 07:55:46;;;;;;;10.63;6.63;;;6.30;93.80;;;;;;5040167;28;20037;-75
2023/04/05 07:58:11;;;;;;;8.73;6.93;;;6.40;93.70;;;;;;5044204;28;20031;-75
2023/04/05 08:00:37;;;;;;;9.13;6.87;;;6.50;93.50;;;;;;5039241;28;20075;-76
2023/04/05 08:03:03;;;;;;;8.83;6.80;;;6.60;93.20;;;;;;5036694;28;20052;-75
2023/04/05 08:05:29;;;;;;;10.13;6.30;;;6.70;92.90;;;;;;5036545;28;20021;-75
2023/04/05 08:07:56;;;;;;;8.57;7.10;;;6.70;92.70;;;;;;5036869;28;20028;-75
2023/04/05 08:10:26;;;;;;;7.60;6.00;;;6.80;92.60;;;;;;5038922;28;20017;-75
2023/04/05 08:12:52;;;;;;;11.57;6.37;;;6.90;92.50;;;;;;5033518;28;20395;-75
2023/04/05 08:15:17;;;;;;;12.27;6.83;;;7.00;92.20;;;;;;5039601;28;20025;-75
2023/04/05 08:17:43;;;;;;;7.80;6.57;;;7.10;91.60;;;;;;5039969;28;20021;-75
2023/04/05 08:20:08;;;;;;;9.37;6.93;;;7.20;90.90;;;;;;5039345;28;20033;-76
2023/04/05 08:22:34;;;;;;;8.47;5.33;;;7.30;90.70;;;;;;5039082;28;20413;-75
2023/04/05 08:25:00;;;;;;;11.13;6.80;;;7.40;90.40;;;;;;5035107;28;20029;-74
2023/04/05 08:27:25;;;;;;;15.90;6.50;;;7.50;90.40;;;;;;5012948;28;20030;-74
2023/04/05 08:29:51;;;;;;;12.10;6.63;;;7.60;90.10;;;;;;5028011;28;20383;-74
2023/04/05 08:32:16;;;;;;;10.27;6.63;;;7.60;89.30;;;;;;5038413;28;20032;-75
2023/04/05 08:34:42;;;;;;;8.07;5.83;;;7.70;87.90;;;;;;5035414;28;20029;-75
2023/04/05 08:37:07;;;;;;;8.47;5.27;;;7.70;88.20;;;;;;5038279;28;20020;-75
2023/04/05 08:39:36;;;;;;;8.17;5.90;;;7.80;88.10;;;;;;5038026;28;20017;-75
2023/04/05 08:42:16;;;;;;;9.00;4.87;;;7.90;87.60;;;;;;5033830;28;20098;-75
2023/04/05 08:44:44;;;;;;;7.37;5.90;;;8.00;87.30;;;;;;5033536;28;20024;-75
2023/04/05 08:47:14;;;;;;;7.73;5.87;;;8.00;85.10;;;;;;5030964;28;20021;-75
2023/04/05 08:49:43;;;;;;;9.60;5.60;;;8.10;85.00;;;;;;5035354;28;20025;-74
2023/04/05 08:52:09;;;;;;;7.47;4.83;;;8.20;85.30;;;;;;5032926;28;20479;-75
2023/04/05 08:54:34;;;;;;;7.47;5.83;;;8.30;83.60;;;;;;5035546;28;20044;-74
2023/04/05 08:57:04;;;;;;;8.60;5.23;;;8.40;83.70;;;;;;5033677;28;20041;-75
2023/04/05 08:59:34;;;;;;;5.73;4.27;;;8.40;83.60;;;;;;5035624;28;20163;-74
2023/04/05 09:02:02;;;;;;;9.43;6.07;;;8.50;83.30;;;;;;5030434;28;20057;-74
2023/04/05 09:04:30;;;;;;;9.33;5.70;;;8.60;82.00;;;;;;5034905;28;20403;-75
2023/04/05 09:06:58;;;;;;;7.67;5.50;;;8.60;81.30;;;;;;5031927;28;20028;-74
2023/04/05 09:09:24;;;;;;;8.70;5.80;;;8.80;80.80;;;;;;5035347;28;20017;-75
2023/04/05 09:11:50;;;;;;;8.03;5.60;;;8.80;79.90;;;;;;5043929;28;20029;-75
2023/04/05 09:14:16;;;;;;;6.37;5.40;;;8.90;79.70;;;;;;5049281;28;20374;-75
2023/04/05 09:16:43;;;;;;;6.53;5.73;;;8.90;79.10;;;;;;5048231;28;20025;-75
2023/04/05 09:19:09;;;;;;;7.10;5.87;;;8.90;78.30;;;;;;5039245;28;20080;-74
2023/04/05 09:22:03;;;;;;;7.20;5.07;;;9.00;78.10;;;;;;5033728;28;20015;-75
2023/04/05 09:24:30;;;;;;;10.85;5.82;;;9.10;78.20;;;;;;5033563;28;20103;-75
2023/04/05 09:27:07;;;;;;;8.57;5.97;;;9.10;78.70;;;;;;5031468;28;20155;-74
2023/04/05 09:29:34;;;;;;;6.50;5.40;;;9.20;78.60;;;;;;5036137;28;20033;-74
2023/04/05 09:32:01;;;;;;;6.63;5.07;;;9.30;78.80;;;;;;5041874;28;20487;-75
2023/04/05 09:34:31;;;;;;;7.80;5.97;;;9.30;78.70;;;;;;5036672;28;20498;-74
2023/04/05 09:36:56;;;;;;;9.17;5.90;;;9.40;78.70;;;;;;5029533;28;20017;-74
2023/04/05 09:39:28;;;;;;;8.17;5.27;;;9.40;78.30;;;;;;5033066;28;20388;-74
2023/04/05 09:42:14;;;;;;;7.67;4.93;;;9.50;77.70;;;;;;5031700;28;20061;-74
2023/04/05 09:44:53;;;;;;;8.33;6.00;;;9.60;77.30;;;;;;5033857;28;20017;-74
2023/04/05 09:47:24;;;;;;;10.07;5.67;;;9.70;77.20;;;;;;5029992;28;20486;-74
2023/04/05 09:49:50;;;;;;;7.40;4.90;;;9.70;77.10;;;;;;5044344;28;20032;-75
2023/04/05 09:52:34;;;;;;;8.57;5.53;;;9.70;76.80;;;;;;5044296;28;20509;-74
2023/04/05 09:55:02;;;;;;;8.30;5.87;;;9.80;76.20;;;;;;5026488;28;20025;-74
2023/04/05 09:57:29;;;;;;;8.67;6.33;;;9.80;75.30;;;;;;5035946;28;20029;-74
2023/04/05 09:59:55;;;;;;;7.17;5.10;;;9.90;75.40;;;;;;5031148;28;20148;-75
2023/04/05 10:02:21;;;;;;;11.80;5.83;;;9.90;75.40;;;;;;5031033;28;20140;-74
2023/04/05 10:04:48;;;;;;;10.70;5.67;;;10.00;74.50;;;;;;5032265;28;20029;-74
2023/04/05 10:07:15;;;;;;;10.63;5.53;;;10.10;74.10;;;;;;5033623;28;20029;-74
2023/04/05 10:09:43;;;;;;;6.47;5.17;;;10.10;73.40;;;;;;5021699;28;20029;-74
2023/04/05 10:12:11;;;;;;;6.53;4.87;;;10.10;73.30;;;;;;5033737;28;20030;-73
2023/04/05 10:14:37;;;;;;;8.40;5.60;;;10.10;73.30;;;;;;5032148;28;20014;-75
2023/04/05 10:17:21;;;;;;;6.53;5.72;;;10.20;72.90;;;;;;5037077;28;20025;-74
2023/04/05 10:19:56;;;;;;;10.50;5.77;;;10.20;72.90;;;;;;5035802;28;20378;-73
2023/04/05 10:22:41;;;;;;;7.47;5.30;;;10.30;73.00;;;;;;5035805;28;20118;-74
2023/04/05 10:25:30;;;;;;;6.00;5.20;;;10.30;72.00;;;;;;5020597;28;20042;-75
2023/04/05 10:28:10;;;;;;;7.00;4.97;;;10.30;72.50;;;;;;5029404;28;20045;-75
2023/04/05 10:30:42;;;;;;;6.85;5.35;;;10.20;71.70;;;;;;5021755;28;20487;-75
2023/04/05 10:33:25;;;;;;;7.30;4.93;;;10.30;71.60;;;;;;5048588;28;20025;-72
2023/04/05 10:35:57;;;;;;;6.57;5.22;;;10.40;71.60;;;;;;5052377;28;20027;-73
2023/04/05 10:38:25;;;;;;;12.18;5.88;;;10.40;71.70;;;;;;5035768;28;20057;-73
2023/04/05 10:41:13;;;;;;;7.80;6.47;;;10.40;70.40;;;;;;5033821;28;20095;-74
2023/04/05 10:43:39;;;;;;;8.05;5.85;;;10.40;70.40;;;;;;5022267;28;20009;-73
2023/04/05 10:46:06;;;;;;;6.32;5.07;;;10.40;70.80;;;;;;5034584;28;20127;-73
2023/04/05 10:48:56;;;;;;;8.77;5.80;;;10.40;70.70;;;;;;5036609;28;20029;-73
2023/04/05 10:51:25;;;;;;;6.72;5.50;;;10.50;70.50;;;;;;5038600;28;20033;-74
2023/04/05 10:53:52;;;;;;;9.48;5.70;;;10.50;70.60;;;;;;5042154;28;20025;-73
2023/04/05 10:56:19;;;;;;;7.73;5.90;;;10.50;70.60;;;;;;5049432;28;20481;-74
2023/04/05 10:58:48;;;;;;;6.30;4.50;;;10.50;70.40;;;;;;5048638;28;20013;-74
2023/04/05 11:01:16;;;;;;;6.63;5.35;;;10.60;70.20;;;;;;5047162;28;20029;-74
2023/04/05 11:03:45;;;;;;;8.03;4.90;;;10.60;69.50;;;;;;5045476;28;20040;-74
2023/04/05 11:06:30;;;;;;;7.37;4.53;;;10.60;68.70;;;;;;5050489;28;20032;-74
2023/04/05 11:09:09;;;;;;;5.45;4.90;;;10.60;67.90;;;;;;5036979;28;20104;-74
2023/04/05 11:11:38;;;;;;;5.03;4.53;;;10.60;67.20;;;;;;5038547;28;20037;-73
2023/04/05 11:14:20;;;;;;;6.17;5.00;;;10.60;67.40;;;;;;5048179;28;20116;-73
2023/04/05 11:16:48;;;;;;;5.40;4.80;;;10.60;66.80;;;;;;5043962;28;20022;-74
2023/04/05 11:19:16;;;;;;;11.27;5.50;;;10.60;66.80;;;;;;5049849;28;20017;-75
2023/04/05 11:21:43;;;;;;;6.68;5.25;;;10.60;66.50;;;;;;5039665;28;20026;-74
2023/04/05 11:24:13;;;;;;;10.95;5.82;;;10.50;65.70;;;;;;5046673;28;20108;-74
2023/04/05 11:26:39;;;;;;;9.50;6.03;;;10.50;66.50;;;;;;5044218;28;20053;-74
2023/04/05 11:29:08;;;;;;;6.72;5.68;;;10.50;66.90;;;;;;5041416;28;20052;-74
2023/04/05 11:31:33;;;;;;;6.95;5.40;;;10.50;67.40;;;;;;5047721;28;20166;-74
2023/04/05 11:34:09;;;;;;;11.07;6.32;;;10.50;66.70;;;;;;5043194;28;20476;-74
2023/04/05 11:36:35;;;;;;;8.83;5.37;;;10.50;66.90;;;;;;5035681;28;20032;-74
2023/04/05 11:39:19;;;;;;;7.53;5.53;;;10.50;67.00;;;;;;5049103;28;20637;-74
2023/04/05 11:41:59;;;;;;;8.27;5.75;;;10.60;66.90;;;;;;5051223;28;20017;-74
2023/04/05 11:44:25;;;;;;;10.70;4.88;;;10.60;66.70;;;;;;5035756;28;20390;-74
2023/04/05 11:46:52;;;;;;;7.63;6.43;;;10.60;66.90;;;;;;5031944;28;20022;-73
2023/04/05 11:49:21;;;;;;;7.97;6.10;;;10.60;66.50;;;;;;5032802;28;20557;-73
2023/04/05 11:51:48;;;;;;;9.20;6.60;;;10.70;66.20;;;;;;5032760;28;20143;-74
2023/04/05 11:54:30;;;;;;;6.70;5.85;;;10.70;66.30;;;;;;5033350;28;20077;-73
2023/04/05 11:56:56;;;;;;;7.13;5.30;;;10.70;66.10;;;;;;5032235;28;20030;-74
2023/04/05 11:59:30;;;;;;;7.88;5.03;;;10.70;66.50;;;;;;5030649;28;20482;-73
2023/04/05 12:02:00;;;;;;;9.25;6.30;;;10.70;66.50;;;;;;5037285;28;20751;-73
2023/04/05 12:04:26;;;;;;;6.38;4.93;;;10.70;66.30;;;;;;5037592;28;20591;-74
2023/04/05 12:07:15;;;;;;;9.32;6.43;;;10.80;66.70;;;;;;5051693;28;20096;-73
2023/04/05 12:10:01;;;;;;;9.20;6.20;;;10.80;66.40;;;;;;5046001;28;20035;-74
2023/04/05 12:12:31;;;;;;;8.60;6.05;;;10.90;65.80;;;;;;5050216;28;20021;-74
2023/04/05 12:14:59;;;;;;;7.70;5.30;;;10.90;66.20;;;;;;5050702;28;20025;-75
2023/04/05 12:18:00;;;;;;;9.23;7.07;;;10.90;66.30;;;;;;5048938;28;20029;-74
2023/04/05 12:20:26;;;;;;;7.43;5.70;;;11.00;66.10;;;;;;4943944;29;20110;-74
2023/04/05 12:22:54;;;;;;;10.15;7.22;;;10.90;66.10;;;;;;4950895;29;20027;-75
2023/04/05 12:25:22;;;;;;;8.88;7.10;;;10.80;66.00;;;;;;4951450;29;20031;-74
2023/04/05 12:27:48;;;;;;;8.90;5.85;;;10.80;66.30;;;;;;4950161;29;20131;-74
2023/04/05 12:30:19;;;;;;;9.52;5.68;;;10.80;66.60;;;;;;4945620;29;20118;-74
2023/04/05 12:32:47;;;;;;;6.28;5.65;;;10.80;66.20;;;;;;4950758;29;20027;-74
2023/04/05 12:35:16;;;;;;;8.43;6.40;;;10.90;66.40;;;;;;4950603;29;20031;-74
2023/04/05 12:37:41;;;;;;;9.70;6.63;;;10.90;66.80;;;;;;4931726;29;20552;-73
2023/04/05 12:40:08;;;;;;;8.30;6.57;;;10.90;66.60;;;;;;4949554;28;20035;-75
2023/04/05 12:42:35;;;;;;;6.65;5.95;;;10.90;66.50;;;;;;4954017;28;20520;-74
2023/04/05 12:45:10;;;;;;;7.88;5.70;;;11.00;66.70;;;;;;4949846;29;20034;-75
2023/04/05 12:47:56;;;;;;;7.97;6.30;;;10.90;66.90;;;;;;4950060;29;20047;-74
2023/04/05 12:50:29;;;;;;;7.70;6.05;;;11.00;66.20;;;;;;4950488;29;20508;-75
2023/04/05 12:53:04;;;;;;;7.05;5.80;;;11.00;66.20;;;;;;4950537;29;20516;-74
2023/04/05 12:55:30;;;;;;;6.65;5.53;;;11.00;66.60;;;;;;5024660;28;20034;-74
2023/04/05 12:58:00;;;;;;;7.70;6.22;;;11.00;66.20;;;;;;5038363;28;20128;-74